createdAt,value
2017-09-15T00:00:57.764Z,75.40
2017-09-15T00:03:25.344Z,75.20
2017-09-15T00:05:52.895Z,75.20
2017-09-15T00:08:20.433Z,75.30
2017-09-15T00:10:48.059Z,75.30
2017-09-15T00:13:15.607Z,75.30
2017-09-15T00:15:43.231Z,75.30
2017-09-15T00:18:10.826Z,75.40
2017-09-15T00:20:38.437Z,75.30
2017-09-15T00:23:05.967Z,75.20
2017-09-15T00:25:33.520Z,75.20
2017-09-15T00:28:01.095Z,75.30
2017-09-15T00:30:28.980Z,75.40
2017-09-15T00:32:57.625Z,76.40
2017-09-15T00:35:25.182Z,75.60
2017-09-15T00:37:52.811Z,75.80
2017-09-15T00:40:21.552Z,76.10
2017-09-15T00:42:49.154Z,76.10
2017-09-15T00:45:16.703Z,76.20
2017-09-15T00:47:44.393Z,76.40
2017-09-15T00:50:12.710Z,76.60
2017-09-15T00:52:40.313Z,76.60
2017-09-15T00:55:07.860Z,76.80
2017-09-15T00:57:35.390Z,76.90
2017-09-15T01:00:02.996Z,76.80
2017-09-15T01:02:31.365Z,76.80
2017-09-15T01:04:59.705Z,76.40
2017-09-15T01:07:28.020Z,76.30
2017-09-15T01:09:56.447Z,76.30
2017-09-15T01:12:24.009Z,76.30
2017-09-15T01:14:51.570Z,76.40
2017-09-15T01:17:19.248Z,76.10
2017-09-15T01:19:46.859Z,76.00
2017-09-15T01:22:14.392Z,76.00
2017-09-15T01:24:42.703Z,76.00
2017-09-15T01:27:10.220Z,75.90
2017-09-15T01:29:37.760Z,75.80
2017-09-15T01:32:05.750Z,75.60
2017-09-15T01:34:33.301Z,75.40
2017-09-15T01:37:01.696Z,75.40
2017-09-15T01:39:29.275Z,75.30
2017-09-15T01:41:56.886Z,75.20
2017-09-15T01:44:24.530Z,75.10
2017-09-15T01:46:52.132Z,74.90
2017-09-15T01:49:19.711Z,74.90
2017-09-15T01:51:48.034Z,74.90
2017-09-15T01:54:16.533Z,74.80
2017-09-15T01:56:44.172Z,74.60
2017-09-15T01:59:11.802Z,74.50
2017-09-15T02:01:39.354Z,74.40
2017-09-15T02:04:07.711Z,74.20
2017-09-15T02:06:35.296Z,74.20
2017-09-15T02:09:02.994Z,74.00
2017-09-15T02:11:30.662Z,73.90
2017-09-15T02:13:58.377Z,73.70
2017-09-15T02:16:26.136Z,73.50
2017-09-15T02:18:54.264Z,73.30
2017-09-15T02:21:21.981Z,73.40
2017-09-15T02:23:50.315Z,73.80
2017-09-15T02:26:17.925Z,73.80
2017-09-15T02:28:45.516Z,73.80
2017-09-15T02:31:13.085Z,74.00
2017-09-15T02:33:40.945Z,74.00
2017-09-15T02:36:08.518Z,74.00
2017-09-15T02:38:36.136Z,74.10
2017-09-15T02:41:04.444Z,73.80
2017-09-15T02:43:32.077Z,73.70
2017-09-15T02:45:59.769Z,73.80
2017-09-15T02:48:27.328Z,73.70
2017-09-15T02:50:54.828Z,73.70
2017-09-15T02:53:22.715Z,73.70
2017-09-15T02:55:50.976Z,73.50
2017-09-15T02:58:19.312Z,73.50
2017-09-15T03:00:46.879Z,73.40
2017-09-15T03:03:14.463Z,73.30
2017-09-15T03:05:42.132Z,73.20
2017-09-15T03:08:09.721Z,73.20
2017-09-15T03:10:37.268Z,73.80
2017-09-15T03:13:04.812Z,72.90
2017-09-15T03:15:32.467Z,72.90
2017-09-15T03:17:59.988Z,72.90
2017-09-15T03:20:27.528Z,72.80
2017-09-15T03:22:55.881Z,72.60
2017-09-15T03:25:23.460Z,72.60
2017-09-15T03:27:51.838Z,72.60
2017-09-15T03:30:20.192Z,72.60
2017-09-15T03:32:48.521Z,72.60
2017-09-15T03:35:16.830Z,72.70
2017-09-15T03:37:44.364Z,72.70
2017-09-15T03:40:11.878Z,73.00
2017-09-15T03:42:39.431Z,73.20
2017-09-15T03:47:57.438Z,73.60
2017-09-15T03:50:25.126Z,73.80
2017-09-15T03:52:52.661Z,73.80
2017-09-15T03:55:20.180Z,74.00
2017-09-15T03:57:47.758Z,74.30
2017-09-15T04:00:15.368Z,74.30
2017-09-15T04:02:42.887Z,74.40
2017-09-15T04:05:10.498Z,74.50
2017-09-15T04:07:38.094Z,74.40
2017-09-15T04:10:05.677Z,74.30
2017-09-15T04:12:33.303Z,74.40
2017-09-15T04:15:01.716Z,73.90
2017-09-15T04:17:29.496Z,73.80
2017-09-15T04:19:57.076Z,73.70
2017-09-15T04:22:24.654Z,73.70
2017-09-15T04:24:52.309Z,73.90
2017-09-15T04:27:19.966Z,73.90
2017-09-15T04:29:48.042Z,74.30
2017-09-15T04:32:16.357Z,73.90
2017-09-15T04:34:44.746Z,74.30
2017-09-15T04:37:12.361Z,74.50
2017-09-15T04:39:40.020Z,74.70
2017-09-15T04:42:07.865Z,74.70
2017-09-15T04:44:35.379Z,74.50
2017-09-15T04:47:03.008Z,74.50
2017-09-15T04:49:30.695Z,74.40
2017-09-15T04:51:58.282Z,74.60
2017-09-15T04:54:25.872Z,74.60
2017-09-15T04:56:53.579Z,74.60
2017-09-15T04:59:21.099Z,74.60
2017-09-15T05:01:49.493Z,74.50
2017-09-15T05:04:17.087Z,74.40
2017-09-15T05:06:44.664Z,74.30
2017-09-15T05:09:12.530Z,74.30
2017-09-15T05:11:40.187Z,74.30
2017-09-15T05:14:07.782Z,74.20
2017-09-15T05:16:35.327Z,74.40
2017-09-15T05:19:03.503Z,74.50
2017-09-15T05:21:31.077Z,74.40
2017-09-15T05:23:58.782Z,74.50
2017-09-15T05:26:26.567Z,74.50
2017-09-15T05:28:54.105Z,74.20
2017-09-15T05:31:21.717Z,74.10
2017-09-15T05:33:49.433Z,74.00
2017-09-15T05:36:17.021Z,73.70
2017-09-15T05:38:44.802Z,73.60
2017-09-15T05:41:12.433Z,73.50
2017-09-15T05:43:39.928Z,73.40
2017-09-15T05:46:07.530Z,73.00
2017-09-15T05:48:35.124Z,72.80
2017-09-15T05:51:02.714Z,72.60
2017-09-15T05:53:30.285Z,72.60
2017-09-15T05:55:58.647Z,72.60
2017-09-15T05:58:26.250Z,72.60
2017-09-15T06:00:53.797Z,72.80
2017-09-15T06:03:21.425Z,72.50
2017-09-15T06:05:48.981Z,72.70
2017-09-15T06:08:16.649Z,72.60
2017-09-15T06:10:44.216Z,72.40
2017-09-15T06:13:11.760Z,72.30
2017-09-15T06:15:39.303Z,72.40
2017-09-15T06:18:06.908Z,72.30
2017-09-15T06:20:34.530Z,72.30
2017-09-15T06:23:02.843Z,72.20
2017-09-15T06:25:30.476Z,72.10
2017-09-15T06:27:58.171Z,72.30
2017-09-15T06:30:25.762Z,72.30
2017-09-15T06:32:53.377Z,71.80
2017-09-15T06:35:20.959Z,71.90
2017-09-15T06:37:48.524Z,71.60
2017-09-15T06:40:16.867Z,71.40
2017-09-15T06:42:44.441Z,71.40
2017-09-15T06:45:11.951Z,71.10
2017-09-15T06:47:39.520Z,70.70
2017-09-15T06:50:07.036Z,70.40
2017-09-15T06:52:34.578Z,69.90
2017-09-15T06:55:02.241Z,69.00
2017-09-15T06:57:30.308Z,69.10
2017-09-15T06:59:57.945Z,69.30
2017-09-15T07:02:25.568Z,68.90
2017-09-15T07:04:53.202Z,68.20
2017-09-15T07:07:20.757Z,68.10
2017-09-15T07:09:48.397Z,68.00
2017-09-15T07:12:16.071Z,67.60
2017-09-15T07:14:43.614Z,67.60
2017-09-15T07:17:11.337Z,67.50
2017-09-15T07:19:38.997Z,67.00
2017-09-15T07:22:06.716Z,67.30
2017-09-15T07:24:34.376Z,66.90
2017-09-15T07:27:02.043Z,66.70
2017-09-15T07:29:29.569Z,66.10
2017-09-15T07:31:57.301Z,66.00
2017-09-15T07:34:24.872Z,66.40
2017-09-15T07:36:52.472Z,66.00
2017-09-15T07:39:20.132Z,66.00
2017-09-15T07:41:47.694Z,65.70
2017-09-15T07:44:15.248Z,65.80
2017-09-15T07:46:42.941Z,65.10
2017-09-15T07:49:10.528Z,65.20
2017-09-15T07:51:39.373Z,65.80
2017-09-15T07:54:07.017Z,65.80
2017-09-15T07:56:34.552Z,65.60
2017-09-15T07:59:02.114Z,64.50
2017-09-15T08:01:31.809Z,64.00
2017-09-15T08:04:00.430Z,63.30
2017-09-15T08:06:28.027Z,63.10
2017-09-15T08:08:56.001Z,62.50
2017-09-15T08:11:23.638Z,61.60
2017-09-15T08:13:51.182Z,62.20
2017-09-15T08:16:18.888Z,62.10
2017-09-15T08:18:46.494Z,62.20
2017-09-15T08:21:14.025Z,62.10
2017-09-15T08:23:41.607Z,61.20
2017-09-15T08:26:09.169Z,60.80
2017-09-15T08:28:36.816Z,59.40
2017-09-15T08:31:04.560Z,58.50
2017-09-15T08:33:32.206Z,59.60
2017-09-15T08:36:00.605Z,59.30
2017-09-15T08:38:28.176Z,59.20
2017-09-15T08:40:55.731Z,59.60
2017-09-15T08:43:24.325Z,58.90
2017-09-15T08:45:51.884Z,58.80
2017-09-15T08:48:19.451Z,59.30
2017-09-15T08:50:47.064Z,59.20
2017-09-15T08:53:14.630Z,58.50
2017-09-15T08:55:42.165Z,59.10
2017-09-15T08:58:09.721Z,59.10
2017-09-15T09:00:38.199Z,58.80
2017-09-15T09:03:05.702Z,58.50
2017-09-15T09:05:33.354Z,58.10
2017-09-15T09:08:00.911Z,58.50
2017-09-15T09:10:28.742Z,57.90
2017-09-15T09:12:56.252Z,57.40
2017-09-15T09:15:23.842Z,57.30
2017-09-15T09:17:51.387Z,57.10
2017-09-15T09:20:18.951Z,56.90
2017-09-15T09:22:46.555Z,56.80
2017-09-15T09:25:14.097Z,57.10
2017-09-15T09:27:41.692Z,56.20
2017-09-15T09:30:09.219Z,55.70
2017-09-15T09:32:36.749Z,55.90
2017-09-15T09:35:04.332Z,54.80
2017-09-15T09:37:31.939Z,53.10
2017-09-15T09:39:59.554Z,51.90
2017-09-15T09:42:27.139Z,52.60
2017-09-15T09:44:55.038Z,53.80
2017-09-15T09:47:22.691Z,54.90
2017-09-15T09:49:50.245Z,51.10
2017-09-15T09:52:17.867Z,50.40
2017-09-15T09:54:45.469Z,50.50
2017-09-15T09:57:14.211Z,50.20
2017-09-15T09:59:41.851Z,48.70
2017-09-15T10:02:09.428Z,48.90
2017-09-15T10:04:37.235Z,49.30
2017-09-15T10:07:04.797Z,50.30
2017-09-15T10:12:24.824Z,51.50
2017-09-15T10:14:52.337Z,50.20
2017-09-15T10:17:19.960Z,51.80
2017-09-15T10:19:47.528Z,51.80
2017-09-15T10:22:15.106Z,51.10
2017-09-15T10:24:42.671Z,51.00
2017-09-15T10:27:10.252Z,48.10
2017-09-15T10:29:37.813Z,49.70
2017-09-15T10:32:05.394Z,49.90
2017-09-15T10:34:34.236Z,46.40
2017-09-15T10:37:01.833Z,46.40
2017-09-15T10:39:29.351Z,46.50
2017-09-15T10:41:56.906Z,46.00
2017-09-15T10:44:24.406Z,45.20
2017-09-15T10:46:52.292Z,46.10
2017-09-15T10:49:20.899Z,49.30
2017-09-15T10:51:48.537Z,49.30
2017-09-15T10:54:16.193Z,48.10
2017-09-15T10:56:43.990Z,48.40
2017-09-15T10:59:17.982Z,51.80
2017-09-15T11:01:45.690Z,51.70
2017-09-15T11:04:13.370Z,53.30
2017-09-15T11:06:40.934Z,52.00
2017-09-15T11:09:08.656Z,52.40
2017-09-15T11:11:36.329Z,53.40
2017-09-15T11:14:03.876Z,52.40
2017-09-15T11:16:31.574Z,50.30
2017-09-15T11:18:59.126Z,48.10
2017-09-15T11:21:26.680Z,49.00
2017-09-15T11:23:54.217Z,50.30
2017-09-15T11:26:21.882Z,51.50
2017-09-15T11:28:49.416Z,52.50
2017-09-15T11:31:18.024Z,50.50
2017-09-15T11:33:46.099Z,50.60
2017-09-15T11:36:13.696Z,51.30
2017-09-15T11:38:41.598Z,51.30
2017-09-15T11:41:09.204Z,50.70
2017-09-15T11:43:36.822Z,50.80
2017-09-15T11:46:04.494Z,49.50
2017-09-15T11:48:32.087Z,49.50
2017-09-15T11:50:59.762Z,49.50
2017-09-15T11:53:27.360Z,48.30
2017-09-15T11:55:55.652Z,45.80
2017-09-15T11:58:23.989Z,46.70
2017-09-15T12:00:51.543Z,46.70
2017-09-15T12:03:19.093Z,48.70
2017-09-15T12:05:47.417Z,50.40
2017-09-15T12:08:14.978Z,50.30
2017-09-15T12:10:43.323Z,51.40
2017-09-15T12:13:10.850Z,51.40
2017-09-15T12:15:38.462Z,49.90
2017-09-15T12:18:06.109Z,46.60
2017-09-15T12:20:33.727Z,46.80
2017-09-15T12:23:01.261Z,48.80
2017-09-15T12:25:28.799Z,49.40
2017-09-15T12:27:56.432Z,50.20
2017-09-15T12:30:23.967Z,50.90
2017-09-15T12:32:51.455Z,50.70
2017-09-15T12:35:19.129Z,50.50
2017-09-15T12:37:46.685Z,50.60
2017-09-15T12:40:14.277Z,51.30
2017-09-15T12:42:41.801Z,51.70
2017-09-15T12:45:09.362Z,52.10
2017-09-15T12:47:37.827Z,52.50
2017-09-15T12:50:05.780Z,52.40
2017-09-15T12:52:33.348Z,52.10
2017-09-15T12:55:00.871Z,51.60
2017-09-15T12:57:33.541Z,48.60
2017-09-15T13:00:01.147Z,48.50
2017-09-15T13:02:28.745Z,48.60
2017-09-15T13:04:56.307Z,48.40
2017-09-15T13:07:23.889Z,47.10
2017-09-15T13:09:52.328Z,47.90
2017-09-15T13:12:19.895Z,48.60
2017-09-15T13:14:47.516Z,48.50
2017-09-15T13:17:15.990Z,49.30
2017-09-15T13:19:43.679Z,49.30
2017-09-15T13:22:11.272Z,49.20
2017-09-15T13:24:38.797Z,49.10
2017-09-15T13:27:06.372Z,48.60
2017-09-15T13:29:33.949Z,48.20
2017-09-15T13:32:01.501Z,47.50
2017-09-15T13:34:29.049Z,45.30
2017-09-15T13:36:56.679Z,45.60
2017-09-15T13:39:25.023Z,47.70
2017-09-15T13:41:52.561Z,47.70
2017-09-15T13:44:20.960Z,46.20
2017-09-15T13:46:48.540Z,46.10
2017-09-15T13:49:16.158Z,46.90
2017-09-15T13:51:43.766Z,46.50
2017-09-15T13:54:11.332Z,47.30
2017-09-15T13:56:38.850Z,47.00
2017-09-15T13:59:06.452Z,44.90
2017-09-15T14:01:34.126Z,45.40
2017-09-15T14:04:01.736Z,43.70
2017-09-15T14:06:29.310Z,43.90
2017-09-15T14:08:56.822Z,43.60
2017-09-15T14:11:24.514Z,44.80
2017-09-15T14:13:52.142Z,45.50
2017-09-15T14:16:19.729Z,45.20
2017-09-15T14:18:47.280Z,45.10
2017-09-15T14:21:14.999Z,44.40
2017-09-15T14:23:42.598Z,43.00
2017-09-15T14:26:15.096Z,41.80
2017-09-15T14:28:42.670Z,40.60
2017-09-15T14:31:10.331Z,41.40
2017-09-15T14:33:38.014Z,43.20
2017-09-15T14:36:05.540Z,42.80
2017-09-15T14:38:33.193Z,40.50
2017-09-15T14:41:00.749Z,41.30
2017-09-15T14:43:28.350Z,43.20
2017-09-15T14:45:56.666Z,43.90
2017-09-15T14:48:24.249Z,43.80
2017-09-15T14:50:51.839Z,44.30
2017-09-15T14:53:19.511Z,42.80
2017-09-15T14:55:47.122Z,40.20
2017-09-15T14:58:14.739Z,39.20
2017-09-15T15:00:43.115Z,39.60
2017-09-15T15:03:10.714Z,39.50
2017-09-15T15:05:38.306Z,39.10
2017-09-15T15:08:05.887Z,38.50
2017-09-15T15:10:33.773Z,38.10
2017-09-15T15:13:01.384Z,37.90
2017-09-15T15:15:29.015Z,37.40
2017-09-15T15:17:56.703Z,36.90
2017-09-15T15:20:24.292Z,37.40
2017-09-15T15:22:51.844Z,38.00
2017-09-15T15:25:19.412Z,38.80
2017-09-15T15:27:46.928Z,39.00
2017-09-15T15:30:14.489Z,39.40
2017-09-15T15:32:42.108Z,40.30
2017-09-15T15:35:09.687Z,41.50
2017-09-15T15:37:37.236Z,43.20
2017-09-15T15:40:05.008Z,44.10
2017-09-15T15:42:32.654Z,44.40
2017-09-15T15:45:00.188Z,45.00
2017-09-15T15:47:28.973Z,45.60
2017-09-15T15:49:56.485Z,45.60
2017-09-15T15:52:24.114Z,45.70
2017-09-15T15:54:52.840Z,46.30
2017-09-15T15:57:20.419Z,47.00
2017-09-15T15:59:48.011Z,47.70
2017-09-15T16:02:15.608Z,47.10
2017-09-15T16:04:43.150Z,46.00
2017-09-15T16:07:10.758Z,45.70
2017-09-15T16:09:38.509Z,46.00
2017-09-15T16:12:06.049Z,45.90
2017-09-15T16:14:33.581Z,46.80
2017-09-15T16:17:01.145Z,47.00
2017-09-15T16:19:28.720Z,46.90
2017-09-15T16:21:56.442Z,46.00
2017-09-15T16:24:24.534Z,46.20
2017-09-15T16:26:52.928Z,46.70
2017-09-15T16:29:20.524Z,46.70
2017-09-15T16:31:48.156Z,47.30
2017-09-15T16:34:16.417Z,47.80
2017-09-15T16:36:43.965Z,48.20
2017-09-15T16:39:17.208Z,48.40
2017-09-15T16:41:50.504Z,48.20
2017-09-15T16:44:24.137Z,49.00
2017-09-15T16:46:57.476Z,50.10
2017-09-15T16:49:30.442Z,51.30
2017-09-15T16:51:57.973Z,51.90
2017-09-15T16:54:25.694Z,52.30
2017-09-15T16:56:53.319Z,52.60
2017-09-15T16:59:20.873Z,52.90
2017-09-15T17:01:48.468Z,53.40
2017-09-15T17:04:16.047Z,53.40
2017-09-15T17:06:43.629Z,53.70
2017-09-15T17:09:11.224Z,54.00
2017-09-15T17:11:38.783Z,53.80
2017-09-15T17:14:06.334Z,54.30
2017-09-15T17:16:34.042Z,54.50
2017-09-15T17:19:01.580Z,54.20
2017-09-15T17:21:29.163Z,54.70
2017-09-15T17:23:56.717Z,55.00
2017-09-15T17:26:24.311Z,55.30
2017-09-15T17:28:52.686Z,56.30
2017-09-15T17:31:20.262Z,56.20
2017-09-15T17:33:47.826Z,56.70
2017-09-15T17:36:15.400Z,57.10
2017-09-15T17:38:42.961Z,57.40
2017-09-15T17:41:10.534Z,57.80
2017-09-15T17:43:38.047Z,58.20
2017-09-15T17:46:05.739Z,58.50
2017-09-15T17:48:33.267Z,58.80
2017-09-15T17:51:00.771Z,59.00
2017-09-15T17:53:28.328Z,59.40
2017-09-15T17:55:55.858Z,59.50
2017-09-15T17:58:23.405Z,59.80
2017-09-15T18:00:50.963Z,60.10
2017-09-15T18:03:18.564Z,60.60
2017-09-15T18:05:46.867Z,60.60
2017-09-15T18:08:15.210Z,60.10
2017-09-15T18:10:42.785Z,59.90
2017-09-15T18:13:10.293Z,59.80
2017-09-15T18:15:37.827Z,59.80
2017-09-15T18:18:05.445Z,60.00
2017-09-15T18:20:33.130Z,60.30
2017-09-15T18:23:00.680Z,61.00
2017-09-15T18:25:29.063Z,62.00
2017-09-15T18:27:56.637Z,62.00
2017-09-15T18:30:24.231Z,62.50
2017-09-15T18:32:51.857Z,62.80
2017-09-15T18:35:20.153Z,63.50
2017-09-15T18:37:47.804Z,63.40
2017-09-15T18:40:15.408Z,63.90
2017-09-15T18:42:42.965Z,64.20
2017-09-15T18:45:10.596Z,64.40
2017-09-15T18:47:38.525Z,64.70
2017-09-15T18:50:06.098Z,64.70
2017-09-15T18:52:33.653Z,64.70
2017-09-15T18:55:01.250Z,65.00
2017-09-15T18:57:28.840Z,65.20
2017-09-15T18:59:56.419Z,65.30
2017-09-15T19:02:24.990Z,65.40
2017-09-15T19:04:52.709Z,65.50
2017-09-15T19:07:20.532Z,65.60
2017-09-15T19:09:48.169Z,65.80
2017-09-15T19:12:15.991Z,65.80
2017-09-15T19:14:43.684Z,65.90
2017-09-15T19:17:12.011Z,66.20
2017-09-15T19:19:39.743Z,66.40
2017-09-15T19:22:07.366Z,66.60
2017-09-15T19:24:34.957Z,66.90
2017-09-15T19:27:02.543Z,67.20
2017-09-15T19:29:30.100Z,67.20
2017-09-15T19:31:57.710Z,67.20
2017-09-15T19:34:25.267Z,67.20
2017-09-15T19:36:53.825Z,67.20
2017-09-15T19:39:21.405Z,66.90
2017-09-15T19:41:48.971Z,66.70
2017-09-15T19:44:17.320Z,66.70
2017-09-15T19:46:44.996Z,66.60
2017-09-15T19:49:13.415Z,66.50
2017-09-15T19:51:41.133Z,66.50
2017-09-15T19:54:09.610Z,66.60
2017-09-15T19:56:37.194Z,66.70
2017-09-15T19:59:05.033Z,66.90
2017-09-15T20:01:32.734Z,66.90
2017-09-15T20:04:00.363Z,67.10
2017-09-15T20:06:28.036Z,67.10
2017-09-15T20:08:55.694Z,67.20
2017-09-15T20:11:23.443Z,67.30
2017-09-15T20:13:51.084Z,67.40
2017-09-15T20:16:18.739Z,67.60
2017-09-15T20:18:46.320Z,67.60
2017-09-15T20:21:15.449Z,67.80
2017-09-15T20:23:43.104Z,67.80
2017-09-15T20:26:11.348Z,67.90
2017-09-15T20:28:39.187Z,68.30
2017-09-15T20:31:07.092Z,69.30
2017-09-15T20:33:36.489Z,68.60
2017-09-15T20:36:04.028Z,68.60
2017-09-15T20:38:31.556Z,69.00
2017-09-15T20:40:59.126Z,69.40
2017-09-15T20:43:26.767Z,69.60
2017-09-15T20:45:54.390Z,69.90
2017-09-15T20:48:22.007Z,69.90
2017-09-15T20:50:49.631Z,70.00
2017-09-15T20:53:17.236Z,69.90
2017-09-15T20:55:45.316Z,69.80
2017-09-15T20:58:13.260Z,69.60
2017-09-15T21:00:40.846Z,69.70
2017-09-15T21:03:08.399Z,69.90
2017-09-15T21:05:35.925Z,70.10
2017-09-15T21:08:03.531Z,70.30
2017-09-15T21:10:31.204Z,70.60
2017-09-15T21:12:59.015Z,70.50
2017-09-15T21:15:26.723Z,70.50
2017-09-15T21:17:54.403Z,70.70
2017-09-15T21:20:21.964Z,70.60
2017-09-15T21:22:49.515Z,70.90
2017-09-15T21:25:17.080Z,71.00
2017-09-15T21:27:44.695Z,71.20
2017-09-15T21:30:12.271Z,71.30
2017-09-15T21:32:39.809Z,71.40
2017-09-15T21:35:08.153Z,71.60
2017-09-15T21:37:35.744Z,71.50
2017-09-15T21:40:03.358Z,71.80
2017-09-15T21:42:30.932Z,72.00
2017-09-15T21:44:58.607Z,72.10
2017-09-15T21:47:26.952Z,72.40
2017-09-15T21:49:54.505Z,72.30
2017-09-15T21:52:22.132Z,72.50
2017-09-15T21:54:49.672Z,72.70
2017-09-15T21:57:17.284Z,72.90
2017-09-15T21:59:45.246Z,73.10
2017-09-15T22:02:12.894Z,72.90
2017-09-15T22:04:40.431Z,73.00
2017-09-15T22:07:08.042Z,73.10
2017-09-15T22:09:35.601Z,73.10
2017-09-15T22:12:06.570Z,73.20
2017-09-15T22:14:34.720Z,73.20
2017-09-15T22:17:02.312Z,73.40
2017-09-15T22:19:30.387Z,74.70
2017-09-15T22:21:58.010Z,73.70
2017-09-15T22:24:25.668Z,74.70
2017-09-15T22:26:53.211Z,74.80
2017-09-15T22:29:20.823Z,74.90
2017-09-15T22:31:48.331Z,75.00
2017-09-15T22:34:16.253Z,75.30
2017-09-15T22:36:44.120Z,75.10
2017-09-15T22:39:11.682Z,75.20
2017-09-15T22:41:39.338Z,75.40
2017-09-15T22:44:06.919Z,75.40
2017-09-15T22:46:34.482Z,75.40
2017-09-15T22:49:02.054Z,75.30
2017-09-15T22:51:29.604Z,75.40
2017-09-15T22:53:57.120Z,75.40
2017-09-15T22:56:24.679Z,75.30
2017-09-15T22:58:52.226Z,75.70
2017-09-15T23:01:19.794Z,76.00
2017-09-15T23:03:47.354Z,76.10
2017-09-15T23:06:15.083Z,76.10
2017-09-15T23:08:42.608Z,76.10
2017-09-15T23:11:10.167Z,76.00
2017-09-15T23:13:38.074Z,76.30
2017-09-15T23:16:05.640Z,76.10
2017-09-15T23:18:33.200Z,75.90
2017-09-15T23:21:00.746Z,76.40
2017-09-15T23:23:28.293Z,76.40
2017-09-15T23:25:55.870Z,77.10
2017-09-15T23:28:23.429Z,76.60
2017-09-15T23:30:50.971Z,76.90
2017-09-15T23:33:18.513Z,77.00
2017-09-15T23:35:46.877Z,77.50
2017-09-15T23:38:14.383Z,77.40
2017-09-15T23:40:41.952Z,77.50
2017-09-15T23:43:09.518Z,77.40
2017-09-15T23:45:37.738Z,77.40
2017-09-15T23:48:05.442Z,77.40
2017-09-15T23:50:33.388Z,77.20
2017-09-15T23:53:00.972Z,77.40
2017-09-15T23:55:28.470Z,77.70
2017-09-15T23:57:56.095Z,77.50
